createdAt,value
2019-01-24T00:01:31.764Z,25.50
2019-01-24T00:04:02.077Z,23.33
2019-01-24T00:07:21.158Z,22.00
2019-01-24T00:09:53.827Z,20.00
2019-01-24T00:16:20.271Z,14.67
2019-01-24T00:19:10.438Z,26.50
2019-01-24T00:22:20.761Z,24.50
2019-01-24T00:25:10.800Z,20.00
2019-01-24T00:27:43.492Z,27.00
2019-01-24T00:30:33.105Z,14.00
2019-01-24T00:33:06.650Z,25.00
2019-01-24T00:35:58.270Z,20.67
2019-01-24T00:38:50.407Z,21.33
2019-01-24T00:41:33.593Z,21.00
2019-01-24T00:47:17.226Z,20.50
2019-01-24T00:50:10.174Z,24.00
2019-01-24T00:52:59.898Z,28.50
2019-01-24T00:55:49.963Z,32.50
2019-01-24T00:58:39.961Z,22.50
2019-01-24T01:01:30.021Z,22.00
2019-01-24T01:04:01.218Z,24.67
2019-01-24T01:06:35.006Z,27.00
2019-01-24T01:09:09.101Z,26.00
2019-01-24T01:11:40.135Z,28.50
2019-01-24T01:17:13.421Z,27.50
2019-01-24T01:20:03.863Z,21.33
2019-01-24T01:22:35.130Z,26.00
2019-01-24T01:25:24.412Z,26.00
2019-01-24T01:27:55.573Z,29.50
2019-01-24T01:30:46.580Z,28.50
2019-01-24T01:33:17.657Z,29.50
2019-01-24T01:36:07.726Z,33.00
2019-01-24T01:38:38.764Z,25.50
2019-01-24T01:41:28.834Z,29.00
2019-01-24T01:43:59.408Z,22.67
2019-01-24T01:49:52.567Z,20.50
2019-01-24T01:52:22.899Z,21.33
2019-01-24T01:54:53.922Z,23.50
2019-01-24T01:57:25.094Z,22.67
2019-01-24T02:02:39.669Z,26.50
2019-01-24T02:05:11.054Z,29.00
2019-01-24T02:07:42.105Z,24.00
2019-01-24T02:10:15.331Z,25.00
2019-01-24T02:12:46.547Z,25.00
2019-01-24T02:18:23.870Z,30.00
2019-01-24T02:20:55.435Z,28.00
2019-01-24T02:24:08.384Z,24.00
2019-01-24T02:29:40.194Z,33.50
2019-01-24T02:32:42.798Z,19.33
2019-01-24T02:35:25.699Z,27.50
2019-01-24T02:38:02.927Z,27.00
2019-01-24T02:40:35.091Z,17.50
2019-01-24T02:43:06.379Z,24.00
2019-01-24T02:49:03.922Z,28.00
2019-01-24T02:51:49.523Z,26.50
2019-01-24T02:54:20.725Z,22.00
2019-01-24T03:03:07.260Z,24.00
2019-01-24T03:05:38.356Z,22.50
2019-01-24T03:11:27.558Z,26.00
2019-01-24T03:20:11.755Z,20.00
2019-01-24T03:23:11.538Z,27.00
2019-01-24T03:26:23.325Z,20.67
2019-01-24T03:31:37.086Z,29.00
2019-01-24T03:34:08.163Z,24.00
2019-01-24T03:37:18.727Z,25.50
2019-01-24T03:42:55.284Z,25.50
2019-01-24T03:48:44.297Z,26.00
2019-01-24T03:51:54.326Z,24.80
2019-01-24T03:54:40.345Z,26.00
2019-01-24T03:57:13.001Z,32.50
2019-01-24T03:59:43.235Z,19.33
2019-01-24T04:05:19.587Z,22.00
2019-01-24T04:07:50.735Z,32.00
2019-01-24T04:10:41.333Z,26.50
2019-01-24T04:13:12.493Z,30.00
2019-01-24T04:15:43.545Z,25.00
2019-01-24T04:18:33.571Z,30.00
2019-01-24T04:21:06.704Z,28.00
2019-01-24T04:23:37.792Z,25.50
2019-01-24T04:26:27.918Z,33.00
2019-01-24T04:28:59.030Z,21.50
2019-01-24T04:31:30.142Z,25.50
2019-01-24T04:34:01.621Z,24.00
2019-01-24T04:36:44.695Z,23.50
2019-01-24T04:39:36.323Z,26.00
2019-01-24T04:42:29.057Z,27.00
2019-01-24T04:47:42.830Z,21.50
2019-01-24T04:50:15.291Z,22.00
2019-01-24T04:53:05.321Z,22.50
2019-01-24T04:55:36.422Z,28.50
2019-01-24T04:58:06.718Z,23.33
2019-01-24T05:00:56.819Z,27.00
2019-01-24T05:03:31.463Z,29.50
2019-01-24T05:06:02.550Z,21.50
2019-01-24T05:08:52.630Z,23.00
2019-01-24T05:11:25.887Z,22.00
2019-01-24T05:17:11.125Z,14.00
2019-01-24T05:19:42.260Z,24.50
2019-01-24T05:22:13.426Z,26.50
2019-01-24T05:25:03.467Z,33.50
2019-01-24T05:30:23.447Z,42.75
2019-01-24T05:32:55.422Z,31.00
2019-01-24T05:35:34.505Z,29.50
2019-01-24T05:38:12.004Z,31.00
2019-01-24T05:41:04.087Z,29.00
2019-01-24T05:43:54.226Z,26.50
2019-01-24T05:49:58.822Z,24.50
2019-01-24T05:52:30.056Z,27.50
2019-01-24T05:55:20.093Z,29.00
2019-01-24T05:58:13.222Z,26.00
2019-01-24T06:00:49.055Z,16.67
2019-01-24T06:03:38.661Z,22.67
2019-01-24T06:06:28.707Z,15.50
2019-01-24T06:08:59.804Z,23.00
2019-01-24T06:11:30.986Z,24.00
2019-01-24T06:14:02.051Z,31.00
2019-01-24T06:16:51.018Z,18.67
2019-01-24T06:19:43.290Z,22.50
2019-01-24T06:22:33.367Z,22.00
2019-01-24T06:25:04.469Z,18.50
2019-01-24T06:30:44.343Z,22.00
2019-01-24T06:37:03.023Z,21.33
2019-01-24T06:39:34.377Z,22.00
2019-01-24T06:42:04.717Z,13.33
2019-01-24T06:44:36.864Z,20.00
2019-01-24T06:53:17.266Z,22.00
2019-01-24T06:55:48.462Z,25.00
2019-01-24T06:58:19.514Z,24.00
2019-01-24T07:03:52.067Z,20.00
2019-01-24T07:06:41.324Z,16.00
2019-01-24T07:09:30.589Z,18.00
2019-01-24T07:12:22.199Z,23.00
2019-01-24T07:15:15.432Z,24.50
2019-01-24T07:17:45.777Z,18.67
2019-01-24T07:20:53.926Z,20.00
2019-01-24T07:26:05.508Z,22.00
2019-01-24T07:28:36.546Z,23.50
2019-01-24T07:31:07.090Z,21.33
2019-01-24T07:33:57.159Z,22.50
2019-01-24T07:36:28.185Z,21.00
2019-01-24T07:39:35.273Z,12.67
2019-01-24T07:42:00.406Z,23.50
2019-01-24T07:44:49.660Z,23.33
2019-01-24T07:53:16.406Z,23.00
2019-01-24T07:55:57.290Z,20.00
2019-01-24T07:58:41.820Z,21.50
2019-01-24T08:01:39.496Z,25.50
2019-01-24T08:04:29.715Z,20.50
2019-01-24T08:07:00.922Z,32.00
2019-01-24T08:09:32.095Z,23.00
2019-01-24T08:12:26.332Z,16.00
2019-01-24T08:15:26.962Z,10.00
2019-01-24T08:17:58.693Z,21.00
2019-01-24T08:20:31.003Z,16.00
2019-01-24T08:26:03.512Z,23.00
2019-01-24T08:28:34.756Z,18.00
2019-01-24T08:31:25.018Z,20.50
2019-01-24T08:34:14.475Z,20.00
2019-01-24T08:36:56.078Z,25.50
2019-01-24T08:39:59.513Z,22.50
2019-01-24T08:42:30.801Z,28.00
2019-01-24T08:51:10.247Z,21.00
2019-01-24T08:53:41.467Z,25.00
2019-01-24T08:59:35.485Z,24.00
2019-01-24T09:02:07.011Z,19.00
2019-01-24T09:04:37.626Z,20.00
2019-01-24T09:07:11.680Z,20.50
2019-01-24T09:13:14.145Z,25.50
2019-01-24T09:28:14.851Z,22.00
2019-01-24T09:36:59.020Z,25.00
2019-01-24T09:39:49.239Z,24.50
2019-01-24T09:42:20.861Z,23.00
2019-01-24T09:44:52.438Z,23.50
2019-01-24T09:47:34.126Z,26.50
2019-01-24T09:50:06.276Z,23.50
2019-01-24T09:53:15.085Z,24.00
2019-01-24T09:58:29.477Z,18.67
2019-01-24T10:01:38.593Z,25.00
2019-01-24T10:07:38.962Z,21.00
2019-01-24T10:13:34.551Z,24.50
2019-01-24T10:16:24.686Z,24.00
2019-01-24T10:21:48.240Z,25.33
2019-01-24T10:24:18.776Z,15.33
2019-01-24T10:36:08.969Z,24.00
2019-01-24T10:38:50.512Z,26.00
2019-01-24T10:41:34.692Z,25.00
2019-01-24T10:43:55.529Z,24.50
2019-01-24T10:46:45.925Z,24.00
2019-01-24T10:52:23.471Z,15.00
2019-01-24T10:55:14.884Z,29.00
2019-01-24T10:57:46.424Z,26.00
2019-01-24T11:00:58.817Z,23.00
2019-01-24T11:03:48.507Z,16.00
2019-01-24T11:06:37.883Z,11.33
2019-01-24T11:09:10.152Z,22.00
2019-01-24T11:11:41.526Z,29.33
2019-01-24T11:14:31.871Z,34.00
2019-01-24T11:17:03.231Z,28.50
2019-01-24T11:22:57.858Z,30.50
2019-01-24T11:25:48.021Z,33.00
2019-01-24T11:28:21.734Z,25.50
2019-01-24T11:31:11.994Z,27.50
2019-01-24T11:33:55.224Z,35.00
2019-01-24T11:36:37.613Z,24.50
2019-01-24T11:39:11.697Z,29.00
2019-01-24T11:42:02.138Z,29.00
2019-01-24T11:44:38.464Z,27.00
2019-01-24T11:47:22.102Z,33.00
2019-01-24T11:49:42.929Z,27.50
2019-01-24T11:52:33.396Z,27.00
2019-01-24T11:58:54.120Z,31.00
2019-01-24T12:01:44.503Z,26.00
2019-01-24T12:04:34.883Z,25.00
2019-01-24T12:07:46.870Z,25.50
2019-01-24T12:10:35.780Z,26.50
2019-01-24T12:13:44.698Z,29.00
2019-01-24T12:16:15.892Z,27.50
2019-01-24T12:18:49.140Z,27.00
2019-01-24T12:21:23.267Z,38.00
2019-01-24T12:24:13.545Z,32.00
2019-01-24T12:30:06.039Z,36.50
2019-01-24T12:38:18.260Z,28.00
2019-01-24T12:43:50.021Z,28.50
2019-01-24T12:46:42.683Z,33.00
2019-01-24T12:49:32.741Z,29.50
2019-01-24T12:52:23.167Z,32.50
2019-01-24T12:55:11.916Z,26.00
2019-01-24T12:58:02.032Z,35.00
2019-01-24T13:00:55.953Z,27.50
2019-01-24T13:03:59.776Z,33.00
2019-01-24T13:06:53.199Z,24.00
2019-01-24T13:12:38.149Z,28.00
2019-01-24T13:15:09.943Z,27.00
2019-01-24T13:17:42.824Z,29.00
2019-01-24T13:20:17.144Z,32.00
2019-01-24T13:22:51.199Z,24.50
2019-01-24T13:25:44.998Z,26.50
2019-01-24T13:28:38.144Z,28.00
2019-01-24T13:31:27.325Z,33.00
2019-01-24T13:33:58.618Z,28.50
2019-01-24T13:37:10.730Z,34.40
2019-01-24T13:40:05.795Z,35.00
2019-01-24T13:42:45.232Z,27.50
2019-01-24T13:51:54.005Z,27.50
2019-01-24T13:54:44.233Z,25.50
2019-01-24T13:57:15.736Z,30.00
2019-01-24T14:00:05.818Z,37.50
2019-01-24T14:05:40.386Z,28.00
2019-01-24T14:08:30.168Z,28.50
2019-01-24T14:11:22.537Z,27.50
2019-01-24T14:14:12.724Z,36.00
2019-01-24T14:16:44.065Z,28.00
2019-01-24T14:19:15.515Z,25.50
2019-01-24T14:21:49.886Z,32.00
2019-01-24T14:24:26.228Z,34.00
2019-01-24T14:26:57.438Z,30.50
2019-01-24T14:29:32.964Z,35.00
2019-01-24T14:32:04.269Z,34.50
2019-01-24T14:35:13.127Z,28.00
2019-01-24T14:40:54.455Z,24.00
2019-01-24T14:43:44.830Z,28.00
2019-01-24T14:52:57.155Z,27.50
2019-01-24T14:55:47.278Z,34.00
2019-01-24T14:58:37.473Z,27.00
2019-01-24T15:01:16.455Z,18.67
2019-01-24T15:03:52.213Z,20.00
2019-01-24T15:06:22.666Z,18.67
2019-01-24T15:08:53.982Z,21.50
2019-01-24T15:11:30.681Z,19.00
2019-01-24T15:14:03.833Z,17.50
2019-01-24T15:16:34.311Z,21.33
2019-01-24T15:25:49.167Z,22.50
2019-01-24T15:30:52.219Z,22.50
2019-01-24T15:34:01.477Z,27.00
2019-01-24T15:39:38.591Z,26.50
2019-01-24T15:42:32.471Z,26.50
2019-01-24T15:45:01.471Z,21.50
2019-01-24T15:47:35.546Z,30.00
2019-01-24T15:50:44.981Z,34.00
2019-01-24T15:53:18.500Z,26.50
2019-01-24T15:56:08.628Z,24.00
2019-01-24T15:58:54.472Z,27.00
2019-01-24T16:07:28.615Z,23.00
2019-01-24T16:10:19.007Z,27.50
2019-01-24T16:13:12.441Z,27.00
2019-01-24T16:16:03.909Z,28.00
2019-01-24T16:21:44.149Z,27.00
2019-01-24T16:24:53.069Z,22.50
2019-01-24T16:27:24.406Z,30.00
2019-01-24T16:32:58.779Z,25.50
2019-01-24T16:35:54.815Z,26.50
2019-01-24T16:38:46.562Z,26.50
2019-01-24T16:41:36.801Z,28.00
2019-01-24T16:44:10.547Z,22.00
2019-01-24T16:46:41.845Z,25.50
2019-01-24T16:49:35.215Z,27.00
2019-01-24T16:52:28.253Z,27.50
2019-01-24T16:54:59.230Z,25.50
2019-01-24T17:04:00.767Z,25.00
2019-01-24T17:07:11.364Z,35.50
2019-01-24T17:09:42.821Z,24.50
2019-01-24T17:17:58.451Z,26.50
2019-01-24T17:23:29.966Z,27.00
2019-01-24T17:26:01.095Z,26.00
2019-01-24T17:28:51.106Z,29.00
2019-01-24T17:34:24.532Z,30.00
2019-01-24T17:36:58.159Z,34.50
2019-01-24T17:39:29.228Z,27.50
2019-01-24T17:42:39.442Z,26.50
2019-01-24T17:48:13.721Z,25.50
2019-01-24T17:50:44.726Z,30.00
2019-01-24T17:53:36.026Z,31.25
2019-01-24T17:56:07.112Z,27.50
2019-01-24T17:58:42.624Z,21.00
2019-01-24T18:01:16.039Z,21.50
2019-01-24T18:06:51.146Z,33.50
2019-01-24T18:09:24.912Z,28.50
2019-01-24T18:14:59.965Z,36.50
2019-01-24T18:17:52.318Z,28.50
2019-01-24T18:20:25.121Z,27.50
2019-01-24T18:26:06.939Z,29.00
2019-01-24T18:28:41.237Z,32.00
2019-01-24T18:31:12.230Z,27.50
2019-01-24T18:34:02.695Z,33.00
2019-01-24T18:36:45.387Z,33.50
2019-01-24T18:42:38.720Z,26.00
2019-01-24T18:48:02.882Z,38.00
2019-01-24T18:54:08.841Z,26.50
2019-01-24T19:03:25.733Z,32.50
2019-01-24T19:06:00.729Z,36.00
2019-01-24T19:12:01.273Z,31.50
2019-01-24T19:17:53.217Z,36.50
2019-01-24T19:20:35.577Z,29.50
2019-01-24T19:27:11.912Z,26.50
2019-01-24T19:36:31.941Z,32.50
2019-01-24T19:39:14.139Z,36.50
2019-01-24T19:41:49.763Z,28.00
2019-01-24T19:44:20.720Z,29.00
2019-01-24T19:46:52.124Z,25.50
2019-01-24T19:52:45.024Z,30.50
2019-01-24T19:55:39.361Z,23.50
2019-01-24T20:04:06.119Z,17.00
2019-01-24T20:06:45.640Z,28.50
2019-01-24T20:09:42.545Z,21.33
2019-01-24T20:22:43.209Z,17.00
2019-01-24T20:24:59.767Z,18.67
2019-01-24T20:27:39.308Z,17.50
2019-01-24T20:36:19.317Z,19.00
2019-01-24T20:39:09.746Z,15.00
2019-01-24T20:42:00.069Z,15.50
2019-01-24T20:53:19.819Z,16.00
2019-01-24T20:55:50.418Z,20.67
2019-01-24T20:59:12.572Z,18.50
2019-01-24T21:02:03.372Z,19.00
2019-01-24T21:04:23.980Z,16.00
2019-01-24T21:09:50.184Z,18.00
2019-01-24T21:12:39.141Z,12.67
2019-01-24T21:18:01.368Z,13.50
2019-01-24T21:20:31.624Z,16.67
2019-01-24T21:24:01.033Z,14.00
2019-01-24T21:26:21.406Z,18.00
2019-01-24T21:29:13.883Z,17.50
2019-01-24T21:31:48.894Z,16.67
2019-01-24T21:37:20.978Z,18.00
2019-01-24T21:40:13.012Z,16.00
2019-01-24T21:42:46.313Z,18.50
2019-01-24T21:45:19.298Z,15.33
2019-01-24T21:47:49.559Z,15.33
2019-01-24T21:50:21.072Z,15.33
2019-01-24T21:53:10.351Z,12.00
2019-01-24T21:59:05.762Z,12.67
2019-01-24T22:01:55.759Z,12.00
2019-01-24T22:04:46.839Z,11.33
2019-01-24T22:10:17.689Z,12.00
2019-01-24T22:12:47.958Z,13.33
2019-01-24T22:15:40.722Z,14.67
2019-01-24T22:18:12.413Z,7.33
2019-01-24T22:24:35.850Z,14.50
2019-01-24T22:27:27.351Z,12.00
2019-01-24T22:29:59.198Z,9.33
2019-01-24T22:33:08.567Z,14.00
2019-01-24T22:39:09.899Z,10.00
2019-01-24T22:41:59.326Z,19.33
2019-01-24T22:44:48.567Z,12.67
2019-01-24T22:53:06.820Z,16.00
2019-01-24T22:55:56.893Z,16.50
2019-01-24T22:58:27.550Z,13.33
2019-01-24T23:01:50.150Z,13.33
2019-01-24T23:07:38.644Z,16.00
2019-01-24T23:10:28.288Z,11.33
2019-01-24T23:13:36.443Z,11.33
2019-01-24T23:16:06.925Z,18.67
2019-01-24T23:18:37.276Z,15.33
2019-01-24T23:21:26.666Z,10.67
2019-01-24T23:24:30.454Z,15.50
2019-01-24T23:27:58.155Z,17.50
2019-01-24T23:34:02.345Z,15.00
2019-01-24T23:39:16.165Z,18.00
2019-01-24T23:42:05.585Z,19.33
2019-01-24T23:44:35.906Z,14.00
2019-01-24T23:47:27.106Z,15.33
2019-01-24T23:50:00.583Z,16.50
2019-01-24T23:52:51.606Z,18.67
2019-01-24T23:55:22.768Z,12.00
2019-01-24T23:58:14.050Z,14.00
